Westfield, Illinois
Current Conditions -  °F | °C
As of 2:53 PM on Tuesday 27 Jan 2015 (Local Time) from KMTO Reporting Station
Overcast Overcast  
Wind Chill: 23°   Ceiling: 2100
Heat Index: 32°   Visibility: 10mi
Dew Point: 26°   Wind: 12mph
Humidity: 79%   Direction: 360°N
Pressure: 30.16"   Gusts: NA
Location:  39.46°N, 88°W
Report Text: KMTO 272053Z AUTO 36010KT 10SM FEW015 OVC021 00/M03 A3016 RMK AO2 SLP219 I1001 I3003 T00001033 53010
Loading
Personal Weather Stations






























Interactive Weather Map New forecast layout! Learn more

10-Day Weather Forecast

Advertisements
Track Severe Weather on mobile